sensor_id;sensor_type;location;lat;lon;timestamp;temperature;humidity
17495;DHT22;8864;51.970;4.614;2023-04-25T00:02:01;16.80;61.40
17495;DHT22;8864;51.970;4.614;2023-04-25T00:04:29;16.80;61.40
17495;DHT22;8864;51.970;4.614;2023-04-25T00:06:59;16.80;61.40
17495;DHT22;8864;51.970;4.614;2023-04-25T00:09:27;16.80;61.40
17495;DHT22;8864;51.970;4.614;2023-04-25T00:11:54;16.80;61.40
17495;DHT22;8864;51.970;4.614;2023-04-25T00:14:21;16.80;61.30
17495;DHT22;8864;51.970;4.614;2023-04-25T00:16:48;16.80;61.30
17495;DHT22;8864;51.970;4.614;2023-04-25T00:19:18;16.80;62.00
17495;DHT22;8864;51.970;4.614;2023-04-25T00:21:45;16.80;61.30
17495;DHT22;8864;51.970;4.614;2023-04-25T00:24:12;16.80;61.30
17495;DHT22;8864;51.970;4.614;2023-04-25T00:26:39;16.80;61.30
17495;DHT22;8864;51.970;4.614;2023-04-25T00:29:06;16.80;61.20
17495;DHT22;8864;51.970;4.614;2023-04-25T00:31:33;16.80;61.20
17495;DHT22;8864;51.970;4.614;2023-04-25T00:34:00;16.80;61.10
17495;DHT22;8864;51.970;4.614;2023-04-25T00:36:28;16.80;61.10
17495;DHT22;8864;51.970;4.614;2023-04-25T00:38:56;16.70;61.10
17495;DHT22;8864;51.970;4.614;2023-04-25T00:41:24;16.80;61.10
17495;DHT22;8864;51.970;4.614;2023-04-25T00:43:52;16.80;61.10
17495;DHT22;8864;51.970;4.614;2023-04-25T00:46:20;16.80;61.10
17495;DHT22;8864;51.970;4.614;2023-04-25T00:48:47;16.80;61.00
17495;DHT22;8864;51.970;4.614;2023-04-25T00:51:16;16.80;61.00
17495;DHT22;8864;51.970;4.614;2023-04-25T00:53:45;16.80;61.00
17495;DHT22;8864;51.970;4.614;2023-04-25T00:56:12;16.80;61.00
17495;DHT22;8864;51.970;4.614;2023-04-25T00:58:40;16.80;61.00
17495;DHT22;8864;51.970;4.614;2023-04-25T01:01:08;16.80;60.90
17495;DHT22;8864;51.970;4.614;2023-04-25T01:03:37;16.70;60.90
17495;DHT22;8864;51.970;4.614;2023-04-25T01:06:07;16.80;60.90
17495;DHT22;8864;51.970;4.614;2023-04-25T01:08:34;16.80;60.80
17495;DHT22;8864;51.970;4.614;2023-04-25T01:11:03;16.80;60.80
17495;DHT22;8864;51.970;4.614;2023-04-25T01:13:30;16.80;60.80
17495;DHT22;8864;51.970;4.614;2023-04-25T01:15:57;16.80;60.80
17495;DHT22;8864;51.970;4.614;2023-04-25T01:18:24;16.80;60.80
17495;DHT22;8864;51.970;4.614;2023-04-25T01:20:52;16.80;60.80
17495;DHT22;8864;51.970;4.614;2023-04-25T01:23:22;16.80;60.80
17495;DHT22;8864;51.970;4.614;2023-04-25T01:25:51;16.70;60.60
17495;DHT22;8864;51.970;4.614;2023-04-25T01:28:19;16.80;60.70
17495;DHT22;8864;51.970;4.614;2023-04-25T01:30:47;16.70;60.60
17495;DHT22;8864;51.970;4.614;2023-04-25T01:33:15;16.70;60.60
17495;DHT22;8864;51.970;4.614;2023-04-25T01:35:42;16.80;60.70
17495;DHT22;8864;51.970;4.614;2023-04-25T01:38:10;16.70;60.60
17495;DHT22;8864;51.970;4.614;2023-04-25T01:40:40;16.80;60.60
17495;DHT22;8864;51.970;4.614;2023-04-25T01:43:08;16.70;60.50
17495;DHT22;8864;51.970;4.614;2023-04-25T01:45:37;16.70;60.50
17495;DHT22;8864;51.970;4.614;2023-04-25T01:48:05;16.70;60.50
17495;DHT22;8864;51.970;4.614;2023-04-25T01:50:32;16.70;60.50
17495;DHT22;8864;51.970;4.614;2023-04-25T01:52:59;16.70;60.50
17495;DHT22;8864;51.970;4.614;2023-04-25T01:55:27;16.70;60.50
17495;DHT22;8864;51.970;4.614;2023-04-25T01:57:55;16.70;60.50
17495;DHT22;8864;51.970;4.614;2023-04-25T02:00:22;16.70;60.40
17495;DHT22;8864;51.970;4.614;2023-04-25T02:02:49;16.70;60.40
17495;DHT22;8864;51.970;4.614;2023-04-25T02:05:18;16.70;60.40
17495;DHT22;8864;51.970;4.614;2023-04-25T02:07:47;16.70;60.30
17495;DHT22;8864;51.970;4.614;2023-04-25T02:10:15;16.70;60.40
17495;DHT22;8864;51.970;4.614;2023-04-25T02:12:41;16.70;60.40
17495;DHT22;8864;51.970;4.614;2023-04-25T02:15:10;16.70;60.30
17495;DHT22;8864;51.970;4.614;2023-04-25T02:17:37;16.70;60.30
17495;DHT22;8864;51.970;4.614;2023-04-25T02:20:05;16.70;60.40
17495;DHT22;8864;51.970;4.614;2023-04-25T02:22:32;16.70;60.40
17495;DHT22;8864;51.970;4.614;2023-04-25T02:25:01;16.70;60.30
17495;DHT22;8864;51.970;4.614;2023-04-25T02:27:30;16.70;60.30
17495;DHT22;8864;51.970;4.614;2023-04-25T02:29:57;16.70;60.30
17495;DHT22;8864;51.970;4.614;2023-04-25T02:32:25;16.70;60.30
17495;DHT22;8864;51.970;4.614;2023-04-25T02:34:52;16.70;60.20
17495;DHT22;8864;51.970;4.614;2023-04-25T02:37:19;16.70;60.20
17495;DHT22;8864;51.970;4.614;2023-04-25T02:39:46;16.70;60.20
17495;DHT22;8864;51.970;4.614;2023-04-25T02:42:13;16.70;60.20
17495;DHT22;8864;51.970;4.614;2023-04-25T02:44:40;16.70;60.20
17495;DHT22;8864;51.970;4.614;2023-04-25T02:47:07;16.70;60.20
17495;DHT22;8864;51.970;4.614;2023-04-25T02:49:35;16.70;60.20
17495;DHT22;8864;51.970;4.614;2023-04-25T02:52:02;16.70;60.20
17495;DHT22;8864;51.970;4.614;2023-04-25T02:54:29;16.70;60.20
17495;DHT22;8864;51.970;4.614;2023-04-25T02:56:56;16.70;60.20
17495;DHT22;8864;51.970;4.614;2023-04-25T02:59:23;16.70;60.20
17495;DHT22;8864;51.970;4.614;2023-04-25T03:01:50;16.70;60.20
17495;DHT22;8864;51.970;4.614;2023-04-25T03:04:17;16.70;60.20
17495;DHT22;8864;51.970;4.614;2023-04-25T03:06:46;16.70;60.20
17495;DHT22;8864;51.970;4.614;2023-04-25T03:09:12;16.70;60.20
17495;DHT22;8864;51.970;4.614;2023-04-25T03:11:39;16.70;60.20
17495;DHT22;8864;51.970;4.614;2023-04-25T03:14:06;16.70;60.20
17495;DHT22;8864;51.970;4.614;2023-04-25T03:16:33;16.70;60.20
17495;DHT22;8864;51.970;4.614;2023-04-25T03:19:00;16.70;60.20
17495;DHT22;8864;51.970;4.614;2023-04-25T03:21:27;16.70;60.10
17495;DHT22;8864;51.970;4.614;2023-04-25T03:23:55;16.70;60.20
17495;DHT22;8864;51.970;4.614;2023-04-25T03:26:22;16.70;60.20
17495;DHT22;8864;51.970;4.614;2023-04-25T03:28:49;16.70;60.10
17495;DHT22;8864;51.970;4.614;2023-04-25T03:31:16;16.70;60.20
17495;DHT22;8864;51.970;4.614;2023-04-25T03:33:43;16.70;60.20
17495;DHT22;8864;51.970;4.614;2023-04-25T03:36:10;16.70;60.20
17495;DHT22;8864;51.970;4.614;2023-04-25T03:38:37;16.70;60.20
17495;DHT22;8864;51.970;4.614;2023-04-25T03:41:05;16.70;60.20
17495;DHT22;8864;51.970;4.614;2023-04-25T03:43:32;16.70;60.20
17495;DHT22;8864;51.970;4.614;2023-04-25T03:45:59;16.70;60.20
17495;DHT22;8864;51.970;4.614;2023-04-25T03:48:26;16.70;60.10
17495;DHT22;8864;51.970;4.614;2023-04-25T03:50:54;16.70;60.10
17495;DHT22;8864;51.970;4.614;2023-04-25T03:53:21;16.70;60.00
17495;DHT22;8864;51.970;4.614;2023-04-25T03:55:47;16.70;60.00
17495;DHT22;8864;51.970;4.614;2023-04-25T03:58:16;16.70;60.10
17495;DHT22;8864;51.970;4.614;2023-04-25T04:00:43;16.70;60.00
17495;DHT22;8864;51.970;4.614;2023-04-25T04:03:10;16.60;60.00
17495;DHT22;8864;51.970;4.614;2023-04-25T04:05:37;16.60;60.00
17495;DHT22;8864;51.970;4.614;2023-04-25T04:08:06;16.70;60.00
17495;DHT22;8864;51.970;4.614;2023-04-25T04:10:33;16.60;60.00
17495;DHT22;8864;51.970;4.614;2023-04-25T04:13:00;16.60;60.00
17495;DHT22;8864;51.970;4.614;2023-04-25T04:15:29;16.60;60.00
17495;DHT22;8864;51.970;4.614;2023-04-25T04:17:58;16.60;60.00
17495;DHT22;8864;51.970;4.614;2023-04-25T04:20:28;16.60;60.00
17495;DHT22;8864;51.970;4.614;2023-04-25T04:22:55;16.60;60.00
17495;DHT22;8864;51.970;4.614;2023-04-25T04:25:22;16.60;60.00
17495;DHT22;8864;51.970;4.614;2023-04-25T04:27:50;16.60;60.00
17495;DHT22;8864;51.970;4.614;2023-04-25T04:30:20;16.60;60.00
17495;DHT22;8864;51.970;4.614;2023-04-25T04:32:51;16.60;60.00
17495;DHT22;8864;51.970;4.614;2023-04-25T04:35:18;16.60;60.00
17495;DHT22;8864;51.970;4.614;2023-04-25T04:37:45;16.60;60.00
17495;DHT22;8864;51.970;4.614;2023-04-25T04:40:14;16.60;60.00
17495;DHT22;8864;51.970;4.614;2023-04-25T04:42:41;16.60;60.00
17495;DHT22;8864;51.970;4.614;2023-04-25T04:45:09;16.60;60.10
17495;DHT22;8864;51.970;4.614;2023-04-25T04:47:36;16.60;60.00
17495;DHT22;8864;51.970;4.614;2023-04-25T04:50:07;16.60;60.00
17495;DHT22;8864;51.970;4.614;2023-04-25T04:52:35;16.60;60.00
17495;DHT22;8864;51.970;4.614;2023-04-25T04:55:02;16.60;60.00
17495;DHT22;8864;51.970;4.614;2023-04-25T04:57:30;16.60;60.00
17495;DHT22;8864;51.970;4.614;2023-04-25T04:59:58;16.60;60.00
17495;DHT22;8864;51.970;4.614;2023-04-25T05:02:26;16.60;60.00
17495;DHT22;8864;51.970;4.614;2023-04-25T05:04:53;16.60;60.10
17495;DHT22;8864;51.970;4.614;2023-04-25T05:07:21;16.60;60.00
17495;DHT22;8864;51.970;4.614;2023-04-25T05:09:48;16.60;60.10
17495;DHT22;8864;51.970;4.614;2023-04-25T05:12:15;16.60;60.00
17495;DHT22;8864;51.970;4.614;2023-04-25T05:14:42;16.60;60.00
17495;DHT22;8864;51.970;4.614;2023-04-25T05:17:09;16.60;60.00
17495;DHT22;8864;51.970;4.614;2023-04-25T05:19:36;16.60;60.00
17495;DHT22;8864;51.970;4.614;2023-04-25T05:22:03;16.60;60.00
17495;DHT22;8864;51.970;4.614;2023-04-25T05:24:31;16.60;60.00
17495;DHT22;8864;51.970;4.614;2023-04-25T05:26:58;16.60;60.00
17495;DHT22;8864;51.970;4.614;2023-04-25T05:29:25;16.60;60.00
17495;DHT22;8864;51.970;4.614;2023-04-25T05:31:52;16.60;60.00
17495;DHT22;8864;51.970;4.614;2023-04-25T05:34:19;16.60;60.00
17495;DHT22;8864;51.970;4.614;2023-04-25T05:36:46;16.60;60.00
17495;DHT22;8864;51.970;4.614;2023-04-25T05:39:14;16.60;60.00
17495;DHT22;8864;51.970;4.614;2023-04-25T05:41:43;16.60;60.00
17495;DHT22;8864;51.970;4.614;2023-04-25T05:44:10;16.60;60.00
17495;DHT22;8864;51.970;4.614;2023-04-25T05:46:37;16.60;60.00
17495;DHT22;8864;51.970;4.614;2023-04-25T05:49:04;16.60;60.00
17495;DHT22;8864;51.970;4.614;2023-04-25T05:51:31;16.60;60.00
17495;DHT22;8864;51.970;4.614;2023-04-25T05:53:58;16.60;60.00
17495;DHT22;8864;51.970;4.614;2023-04-25T05:56:25;16.60;60.00
17495;DHT22;8864;51.970;4.614;2023-04-25T05:58:53;16.60;60.00
17495;DHT22;8864;51.970;4.614;2023-04-25T06:01:21;16.60;60.00
17495;DHT22;8864;51.970;4.614;2023-04-25T06:03:48;16.60;60.00
17495;DHT22;8864;51.970;4.614;2023-04-25T06:06:17;16.60;59.90
17495;DHT22;8864;51.970;4.614;2023-04-25T06:08:44;16.60;59.90
17495;DHT22;8864;51.970;4.614;2023-04-25T06:11:11;16.60;59.90
17495;DHT22;8864;51.970;4.614;2023-04-25T06:13:38;16.60;59.90
17495;DHT22;8864;51.970;4.614;2023-04-25T06:16:06;16.60;59.90
17495;DHT22;8864;51.970;4.614;2023-04-25T06:18:33;16.60;60.00
17495;DHT22;8864;51.970;4.614;2023-04-25T06:21:00;16.60;60.00
17495;DHT22;8864;51.970;4.614;2023-04-25T06:23:28;16.60;59.90
17495;DHT22;8864;51.970;4.614;2023-04-25T06:25:55;16.60;59.90
17495;DHT22;8864;51.970;4.614;2023-04-25T06:28:21;16.60;59.90
17495;DHT22;8864;51.970;4.614;2023-04-25T06:30:49;16.60;60.00
17495;DHT22;8864;51.970;4.614;2023-04-25T06:33:18;16.60;60.00
17495;DHT22;8864;51.970;4.614;2023-04-25T06:35:45;16.60;60.00
17495;DHT22;8864;51.970;4.614;2023-04-25T06:38:12;16.60;60.00
17495;DHT22;8864;51.970;4.614;2023-04-25T06:40:39;16.60;60.00
17495;DHT22;8864;51.970;4.614;2023-04-25T06:43:06;16.60;60.00
17495;DHT22;8864;51.970;4.614;2023-04-25T06:45:33;16.60;60.00
17495;DHT22;8864;51.970;4.614;2023-04-25T06:48:00;16.60;60.00
17495;DHT22;8864;51.970;4.614;2023-04-25T06:50:28;16.60;60.00
17495;DHT22;8864;51.970;4.614;2023-04-25T06:52:55;16.60;60.00
17495;DHT22;8864;51.970;4.614;2023-04-25T06:55:22;16.60;60.00
17495;DHT22;8864;51.970;4.614;2023-04-25T06:57:49;16.60;60.00
17495;DHT22;8864;51.970;4.614;2023-04-25T07:00:16;16.60;60.00
17495;DHT22;8864;51.970;4.614;2023-04-25T07:02:43;16.60;60.00
17495;DHT22;8864;51.970;4.614;2023-04-25T07:05:10;16.70;60.00
17495;DHT22;8864;51.970;4.614;2023-04-25T07:07:39;16.70;60.10
17495;DHT22;8864;51.970;4.614;2023-04-25T07:10:06;16.70;60.90
17495;DHT22;8864;51.970;4.614;2023-04-25T07:12:33;16.70;60.20
17495;DHT22;8864;51.970;4.614;2023-04-25T07:15:00;16.70;60.20
17495;DHT22;8864;51.970;4.614;2023-04-25T07:17:31;16.60;60.10
17495;DHT22;8864;51.970;4.614;2023-04-25T07:19:59;16.60;60.10
17495;DHT22;8864;51.970;4.614;2023-04-25T07:22:26;16.70;60.20
17495;DHT22;8864;51.970;4.614;2023-04-25T07:24:54;16.70;60.20
17495;DHT22;8864;51.970;4.614;2023-04-25T07:27:21;16.70;60.20
17495;DHT22;8864;51.970;4.614;2023-04-25T07:29:48;16.70;60.20
17495;DHT22;8864;51.970;4.614;2023-04-25T07:32:15;16.70;60.20
17495;DHT22;8864;51.970;4.614;2023-04-25T07:34:42;16.70;60.20
17495;DHT22;8864;51.970;4.614;2023-04-25T07:37:09;16.60;60.10
17495;DHT22;8864;51.970;4.614;2023-04-25T07:39:35;16.70;60.20
17495;DHT22;8864;51.970;4.614;2023-04-25T07:42:04;16.70;60.20
17495;DHT22;8864;51.970;4.614;2023-04-25T07:44:33;16.70;60.20
17495;DHT22;8864;51.970;4.614;2023-04-25T07:47:04;16.70;60.20
17495;DHT22;8864;51.970;4.614;2023-04-25T07:49:34;16.70;60.10
17495;DHT22;8864;51.970;4.614;2023-04-25T07:52:01;16.70;60.20
17495;DHT22;8864;51.970;4.614;2023-04-25T07:54:28;16.70;60.20
17495;DHT22;8864;51.970;4.614;2023-04-25T07:56:55;16.70;60.20
17495;DHT22;8864;51.970;4.614;2023-04-25T07:59:24;16.70;60.20
17495;DHT22;8864;51.970;4.614;2023-04-25T08:01:51;16.70;60.20
17495;DHT22;8864;51.970;4.614;2023-04-25T08:04:18;16.70;60.20
17495;DHT22;8864;51.970;4.614;2023-04-25T08:06:45;16.70;60.20
17495;DHT22;8864;51.970;4.614;2023-04-25T08:09:12;16.70;60.20
17495;DHT22;8864;51.970;4.614;2023-04-25T08:11:38;16.70;60.20
17495;DHT22;8864;51.970;4.614;2023-04-25T08:14:05;16.70;60.20
17495;DHT22;8864;51.970;4.614;2023-04-25T08:16:34;16.70;60.20
17495;DHT22;8864;51.970;4.614;2023-04-25T08:19:01;16.70;60.10
17495;DHT22;8864;51.970;4.614;2023-04-25T08:21:28;16.70;60.10
17495;DHT22;8864;51.970;4.614;2023-04-25T08:23:55;16.70;60.10
17495;DHT22;8864;51.970;4.614;2023-04-25T08:26:23;16.80;60.20
17495;DHT22;8864;51.970;4.614;2023-04-25T08:28:50;16.80;60.20
17495;DHT22;8864;51.970;4.614;2023-04-25T08:31:17;16.80;60.00
17495;DHT22;8864;51.970;4.614;2023-04-25T08:33:46;16.80;60.00
17495;DHT22;8864;51.970;4.614;2023-04-25T08:36:15;16.80;60.00
17495;DHT22;8864;51.970;4.614;2023-04-25T08:38:43;16.80;59.90
17495;DHT22;8864;51.970;4.614;2023-04-25T08:41:11;16.80;59.90
17495;DHT22;8864;51.970;4.614;2023-04-25T08:43:40;16.80;60.00
17495;DHT22;8864;51.970;4.614;2023-04-25T08:46:09;16.80;60.00
17495;DHT22;8864;51.970;4.614;2023-04-25T08:48:36;16.80;60.00
17495;DHT22;8864;51.970;4.614;2023-04-25T08:51:07;16.80;60.00
17495;DHT22;8864;51.970;4.614;2023-04-25T08:53:34;16.80;60.00
17495;DHT22;8864;51.970;4.614;2023-04-25T08:56:02;16.80;59.90
17495;DHT22;8864;51.970;4.614;2023-04-25T08:58:29;16.80;59.90
17495;DHT22;8864;51.970;4.614;2023-04-25T09:00:56;16.80;60.00
17495;DHT22;8864;51.970;4.614;2023-04-25T09:03:23;16.80;59.90
17495;DHT22;8864;51.970;4.614;2023-04-25T09:05:50;16.80;60.00
17495;DHT22;8864;51.970;4.614;2023-04-25T09:08:19;16.80;60.00
17495;DHT22;8864;51.970;4.614;2023-04-25T09:10:46;16.80;60.00
17495;DHT22;8864;51.970;4.614;2023-04-25T09:13:14;16.80;60.00
17495;DHT22;8864;51.970;4.614;2023-04-25T09:15:48;16.80;60.00
17495;DHT22;8864;51.970;4.614;2023-04-25T09:18:23;16.80;60.00
17495;DHT22;8864;51.970;4.614;2023-04-25T09:20:52;16.80;60.10
17495;DHT22;8864;51.970;4.614;2023-04-25T09:23:21;16.80;60.10
17495;DHT22;8864;51.970;4.614;2023-04-25T09:25:49;16.80;60.00
17495;DHT22;8864;51.970;4.614;2023-04-25T09:28:17;16.90;60.00
17495;DHT22;8864;51.970;4.614;2023-04-25T09:30:49;16.90;60.00
17495;DHT22;8864;51.970;4.614;2023-04-25T09:33:16;16.90;60.00
17495;DHT22;8864;51.970;4.614;2023-04-25T09:35:44;16.90;60.80
17495;DHT22;8864;51.970;4.614;2023-04-25T09:38:13;16.90;59.80
17495;DHT22;8864;51.970;4.614;2023-04-25T09:40:42;16.90;59.60
17495;DHT22;8864;51.970;4.614;2023-04-25T09:43:10;16.90;59.60
17495;DHT22;8864;51.970;4.614;2023-04-25T09:45:43;16.90;59.50
17495;DHT22;8864;51.970;4.614;2023-04-25T09:48:17;16.90;59.60
17495;DHT22;8864;51.970;4.614;2023-04-25T09:50:45;16.90;59.50
17495;DHT22;8864;51.970;4.614;2023-04-25T09:53:12;16.90;59.60
17495;DHT22;8864;51.970;4.614;2023-04-25T09:55:41;16.90;59.50
17495;DHT22;8864;51.970;4.614;2023-04-25T09:58:10;16.90;59.60
17495;DHT22;8864;51.970;4.614;2023-04-25T10:00:38;16.90;59.60
17495;DHT22;8864;51.970;4.614;2023-04-25T10:03:05;16.90;59.70
17495;DHT22;8864;51.970;4.614;2023-04-25T10:05:34;16.90;59.70
17495;DHT22;8864;51.970;4.614;2023-04-25T10:08:03;16.90;59.70
17495;DHT22;8864;51.970;4.614;2023-04-25T10:10:31;17.00;59.70
17495;DHT22;8864;51.970;4.614;2023-04-25T10:13:04;17.00;59.70
17495;DHT22;8864;51.970;4.614;2023-04-25T10:15:34;17.00;59.80
17495;DHT22;8864;51.970;4.614;2023-04-25T10:18:02;17.00;59.70
17495;DHT22;8864;51.970;4.614;2023-04-25T10:20:30;17.00;59.70
17495;DHT22;8864;51.970;4.614;2023-04-25T10:23:04;16.90;59.60
17495;DHT22;8864;51.970;4.614;2023-04-25T10:25:33;17.00;59.70
17495;DHT22;8864;51.970;4.614;2023-04-25T10:28:02;17.00;59.80
17495;DHT22;8864;51.970;4.614;2023-04-25T10:30:29;17.00;59.80
17495;DHT22;8864;51.970;4.614;2023-04-25T10:32:56;16.90;59.80
17495;DHT22;8864;51.970;4.614;2023-04-25T10:35:26;17.00;59.80
17495;DHT22;8864;51.970;4.614;2023-04-25T10:37:58;17.00;59.80
17495;DHT22;8864;51.970;4.614;2023-04-25T10:40:25;17.00;59.70
17495;DHT22;8864;51.970;4.614;2023-04-25T10:42:52;17.00;59.80
17495;DHT22;8864;51.970;4.614;2023-04-25T10:45:21;17.00;59.80
17495;DHT22;8864;51.970;4.614;2023-04-25T10:47:48;17.00;59.70
17495;DHT22;8864;51.970;4.614;2023-04-25T10:50:16;17.00;59.80
17495;DHT22;8864;51.970;4.614;2023-04-25T10:52:43;17.00;59.80
17495;DHT22;8864;51.970;4.614;2023-04-25T10:55:10;17.00;59.80
17495;DHT22;8864;51.970;4.614;2023-04-25T10:57:39;17.00;59.70
17495;DHT22;8864;51.970;4.614;2023-04-25T11:00:12;17.10;59.80
17495;DHT22;8864;51.970;4.614;2023-04-25T11:02:46;17.10;59.80
17495;DHT22;8864;51.970;4.614;2023-04-25T11:05:22;17.10;59.80
17495;DHT22;8864;51.970;4.614;2023-04-25T11:07:51;17.00;59.80
17495;DHT22;8864;51.970;4.614;2023-04-25T11:10:18;17.00;59.80
17495;DHT22;8864;51.970;4.614;2023-04-25T11:12:46;17.00;59.70
17495;DHT22;8864;51.970;4.614;2023-04-25T11:15:14;17.10;59.60
17495;DHT22;8864;51.970;4.614;2023-04-25T11:17:41;17.10;59.60
17495;DHT22;8864;51.970;4.614;2023-04-25T11:20:13;17.10;59.60
17495;DHT22;8864;51.970;4.614;2023-04-25T11:22:41;17.10;59.60
17495;DHT22;8864;51.970;4.614;2023-04-25T11:25:10;17.10;59.40
17495;DHT22;8864;51.970;4.614;2023-04-25T11:27:49;17.10;59.50
17495;DHT22;8864;51.970;4.614;2023-04-25T11:30:17;17.20;59.50
17495;DHT22;8864;51.970;4.614;2023-04-25T11:32:45;17.20;59.50
17495;DHT22;8864;51.970;4.614;2023-04-25T11:35:13;17.20;59.40
17495;DHT22;8864;51.970;4.614;2023-04-25T11:37:41;17.20;59.40
17495;DHT22;8864;51.970;4.614;2023-04-25T11:40:09;17.20;59.40
17495;DHT22;8864;51.970;4.614;2023-04-25T11:42:37;17.20;59.50
17495;DHT22;8864;51.970;4.614;2023-04-25T11:45:06;17.10;59.50
17495;DHT22;8864;51.970;4.614;2023-04-25T11:47:34;17.20;59.50
17495;DHT22;8864;51.970;4.614;2023-04-25T11:50:01;17.30;59.50
17495;DHT22;8864;51.970;4.614;2023-04-25T11:52:41;17.30;59.50
17495;DHT22;8864;51.970;4.614;2023-04-25T11:55:09;17.20;59.30
17495;DHT22;8864;51.970;4.614;2023-04-25T11:57:38;17.30;59.30
17495;DHT22;8864;51.970;4.614;2023-04-25T12:00:08;17.30;59.30
17495;DHT22;8864;51.970;4.614;2023-04-25T12:02:36;17.30;59.30
17495;DHT22;8864;51.970;4.614;2023-04-25T12:05:06;17.30;59.30
17495;DHT22;8864;51.970;4.614;2023-04-25T12:07:33;17.30;59.40
17495;DHT22;8864;51.970;4.614;2023-04-25T12:10:06;17.30;59.50
17495;DHT22;8864;51.970;4.614;2023-04-25T12:12:34;17.30;59.50
17495;DHT22;8864;51.970;4.614;2023-04-25T12:15:11;17.40;59.50
17495;DHT22;8864;51.970;4.614;2023-04-25T12:17:41;17.40;59.50
17495;DHT22;8864;51.970;4.614;2023-04-25T12:20:10;17.50;59.60
17495;DHT22;8864;51.970;4.614;2023-04-25T12:22:37;17.50;59.50
17495;DHT22;8864;51.970;4.614;2023-04-25T12:25:06;17.50;59.50
17495;DHT22;8864;51.970;4.614;2023-04-25T12:27:33;17.50;59.40
17495;DHT22;8864;51.970;4.614;2023-04-25T12:30:01;17.50;59.30
17495;DHT22;8864;51.970;4.614;2023-04-25T12:32:29;17.50;59.50
17495;DHT22;8864;51.970;4.614;2023-04-25T12:34:56;17.50;59.50
17495;DHT22;8864;51.970;4.614;2023-04-25T12:37:23;17.50;59.50
17495;DHT22;8864;51.970;4.614;2023-04-25T12:39:50;17.50;59.50
17495;DHT22;8864;51.970;4.614;2023-04-25T12:42:18;17.50;59.40
17495;DHT22;8864;51.970;4.614;2023-04-25T12:44:45;17.50;59.30
17495;DHT22;8864;51.970;4.614;2023-04-25T12:47:13;17.50;59.30
17495;DHT22;8864;51.970;4.614;2023-04-25T12:49:40;17.50;59.40
17495;DHT22;8864;51.970;4.614;2023-04-25T12:52:07;17.60;59.50
17495;DHT22;8864;51.970;4.614;2023-04-25T12:54:34;17.60;59.20
17495;DHT22;8864;51.970;4.614;2023-04-25T12:57:01;17.60;59.10
17495;DHT22;8864;51.970;4.614;2023-04-25T12:59:29;17.60;59.20
17495;DHT22;8864;51.970;4.614;2023-04-25T13:01:56;17.60;59.10
17495;DHT22;8864;51.970;4.614;2023-04-25T13:04:23;17.60;59.20
17495;DHT22;8864;51.970;4.614;2023-04-25T13:06:50;17.60;59.20
17495;DHT22;8864;51.970;4.614;2023-04-25T13:09:17;17.60;59.30
17495;DHT22;8864;51.970;4.614;2023-04-25T13:11:44;17.70;59.20
17495;DHT22;8864;51.970;4.614;2023-04-25T13:14:11;17.70;59.20
17495;DHT22;8864;51.970;4.614;2023-04-25T13:16:39;17.70;59.20
17495;DHT22;8864;51.970;4.614;2023-04-25T13:19:06;17.70;59.30
17495;DHT22;8864;51.970;4.614;2023-04-25T13:21:36;17.70;59.20
17495;DHT22;8864;51.970;4.614;2023-04-25T13:24:04;17.70;59.20
17495;DHT22;8864;51.970;4.614;2023-04-25T13:26:31;17.70;59.20
17495;DHT22;8864;51.970;4.614;2023-04-25T13:28:57;17.70;59.10
17495;DHT22;8864;51.970;4.614;2023-04-25T13:31:26;17.70;59.20
17495;DHT22;8864;51.970;4.614;2023-04-25T13:33:54;17.70;59.20
17495;DHT22;8864;51.970;4.614;2023-04-25T13:36:21;17.80;59.20
17495;DHT22;8864;51.970;4.614;2023-04-25T13:38:48;17.70;59.10
17495;DHT22;8864;51.970;4.614;2023-04-25T13:41:15;17.80;59.10
17495;DHT22;8864;51.970;4.614;2023-04-25T13:43:44;17.70;59.10
17495;DHT22;8864;51.970;4.614;2023-04-25T13:46:13;17.70;59.00
17495;DHT22;8864;51.970;4.614;2023-04-25T13:48:41;17.70;59.10
17495;DHT22;8864;51.970;4.614;2023-04-25T13:51:14;17.70;59.10
17495;DHT22;8864;51.970;4.614;2023-04-25T13:53:43;17.70;59.10
17495;DHT22;8864;51.970;4.614;2023-04-25T13:56:10;17.70;59.00
17495;DHT22;8864;51.970;4.614;2023-04-25T13:58:37;17.80;58.90
17495;DHT22;8864;51.970;4.614;2023-04-25T14:01:04;17.80;58.80
17495;DHT22;8864;51.970;4.614;2023-04-25T14:03:31;17.80;58.80
17495;DHT22;8864;51.970;4.614;2023-04-25T14:05:58;17.90;58.70
17495;DHT22;8864;51.970;4.614;2023-04-25T14:08:27;18.00;58.60
17495;DHT22;8864;51.970;4.614;2023-04-25T14:10:54;18.00;58.60
17495;DHT22;8864;51.970;4.614;2023-04-25T14:13:21;18.00;58.60
17495;DHT22;8864;51.970;4.614;2023-04-25T14:15:49;18.00;58.70
17495;DHT22;8864;51.970;4.614;2023-04-25T14:18:17;18.00;58.70
17495;DHT22;8864;51.970;4.614;2023-04-25T14:20:44;18.00;58.70
17495;DHT22;8864;51.970;4.614;2023-04-25T14:23:11;18.00;58.60
17495;DHT22;8864;51.970;4.614;2023-04-25T14:25:39;18.00;58.50
17495;DHT22;8864;51.970;4.614;2023-04-25T14:28:07;18.00;58.50
17495;DHT22;8864;51.970;4.614;2023-04-25T14:30:34;18.10;58.60
17495;DHT22;8864;51.970;4.614;2023-04-25T14:33:01;18.10;58.50
17495;DHT22;8864;51.970;4.614;2023-04-25T14:35:28;18.10;58.50
17495;DHT22;8864;51.970;4.614;2023-04-25T14:37:55;18.10;58.40
17495;DHT22;8864;51.970;4.614;2023-04-25T14:40:23;18.20;58.40
17495;DHT22;8864;51.970;4.614;2023-04-25T14:42:51;18.10;58.40
17495;DHT22;8864;51.970;4.614;2023-04-25T14:45:18;18.20;58.40
17495;DHT22;8864;51.970;4.614;2023-04-25T14:47:45;18.20;58.30
17495;DHT22;8864;51.970;4.614;2023-04-25T14:50:12;18.30;58.40
17495;DHT22;8864;51.970;4.614;2023-04-25T14:52:39;18.30;58.30
17495;DHT22;8864;51.970;4.614;2023-04-25T14:55:06;18.30;58.20
17495;DHT22;8864;51.970;4.614;2023-04-25T14:57:34;18.30;58.20
17495;DHT22;8864;51.970;4.614;2023-04-25T15:00:04;18.30;58.20
17495;DHT22;8864;51.970;4.614;2023-04-25T15:02:33;18.40;58.30
17495;DHT22;8864;51.970;4.614;2023-04-25T15:05:01;18.40;58.30
17495;DHT22;8864;51.970;4.614;2023-04-25T15:07:28;18.40;58.20
17495;DHT22;8864;51.970;4.614;2023-04-25T15:09:55;18.40;58.10
17495;DHT22;8864;51.970;4.614;2023-04-25T15:12:22;18.40;58.20
17495;DHT22;8864;51.970;4.614;2023-04-25T15:14:51;18.40;58.20
17495;DHT22;8864;51.970;4.614;2023-04-25T15:17:20;18.40;58.20
17495;DHT22;8864;51.970;4.614;2023-04-25T15:19:47;18.40;58.30
17495;DHT22;8864;51.970;4.614;2023-04-25T15:22:14;18.40;58.30
17495;DHT22;8864;51.970;4.614;2023-04-25T15:24:40;18.40;58.30
17495;DHT22;8864;51.970;4.614;2023-04-25T15:27:07;18.40;58.40
17495;DHT22;8864;51.970;4.614;2023-04-25T15:29:34;18.40;58.40
17495;DHT22;8864;51.970;4.614;2023-04-25T15:32:02;18.40;58.30
17495;DHT22;8864;51.970;4.614;2023-04-25T15:34:30;18.40;58.40
17495;DHT22;8864;51.970;4.614;2023-04-25T15:36:57;18.40;58.40
17495;DHT22;8864;51.970;4.614;2023-04-25T15:39:24;18.40;58.50
17495;DHT22;8864;51.970;4.614;2023-04-25T15:41:51;18.30;58.40
17495;DHT22;8864;51.970;4.614;2023-04-25T15:44:18;18.30;58.50
17495;DHT22;8864;51.970;4.614;2023-04-25T15:46:45;18.30;58.40
17495;DHT22;8864;51.970;4.614;2023-04-25T15:49:12;18.30;58.40